sensor_id;sensor_type;location;lat;lon;timestamp;temperature;humidity
10538;DHT22;5317;49.048;8.468;2024-03-23T00:52:22;16.50;73.00
10538;DHT22;5317;49.048;8.468;2024-03-23T00:54:49;16.40;73.50
10538;DHT22;5317;49.048;8.468;2024-03-23T00:57:14;16.30;73.90
10538;DHT22;5317;49.048;8.468;2024-03-23T00:59:41;16.30;73.00
10538;DHT22;5317;49.048;8.468;2024-03-23T01:02:07;16.40;73.10
10538;DHT22;5317;49.048;8.468;2024-03-23T01:04:34;16.40;72.90
10538;DHT22;5317;49.048;8.468;2024-03-23T01:07:00;16.40;72.80
10538;DHT22;5317;49.048;8.468;2024-03-23T01:09:28;16.40;72.70
10538;DHT22;5317;49.048;8.468;2024-03-23T01:11:54;16.40;72.90
10538;DHT22;5317;49.048;8.468;2024-03-23T01:14:20;16.40;73.20
10538;DHT22;5317;49.048;8.468;2024-03-23T01:16:46;16.40;73.30
10538;DHT22;5317;49.048;8.468;2024-03-23T01:19:13;16.40;73.10
10538;DHT22;5317;49.048;8.468;2024-03-23T01:21:39;16.40;73.10
10538;DHT22;5317;49.048;8.468;2024-03-23T01:24:06;16.30;73.00
10538;DHT22;5317;49.048;8.468;2024-03-23T01:26:37;16.30;73.20
10538;DHT22;5317;49.048;8.468;2024-03-23T01:29:04;16.30;73.30
10538;DHT22;5317;49.048;8.468;2024-03-23T01:31:30;16.20;73.40
10538;DHT22;5317;49.048;8.468;2024-03-23T01:33:57;16.20;73.60
10538;DHT22;5317;49.048;8.468;2024-03-23T01:36:24;16.20;73.70
10538;DHT22;5317;49.048;8.468;2024-03-23T01:38:51;16.20;73.70
10538;DHT22;5317;49.048;8.468;2024-03-23T01:41:17;16.10;74.20
10538;DHT22;5317;49.048;8.468;2024-03-23T01:43:45;16.10;73.30
10538;DHT22;5317;49.048;8.468;2024-03-23T01:46:11;16.20;73.20
10538;DHT22;5317;49.048;8.468;2024-03-23T01:48:38;16.20;73.00
10538;DHT22;5317;49.048;8.468;2024-03-23T01:51:04;16.30;72.90
10538;DHT22;5317;49.048;8.468;2024-03-23T01:53:31;16.30;72.60
10538;DHT22;5317;49.048;8.468;2024-03-23T01:55:57;16.30;72.30
10538;DHT22;5317;49.048;8.468;2024-03-23T01:58:24;16.30;72.30
10538;DHT22;5317;49.048;8.468;2024-03-23T02:00:52;16.30;72.40
10538;DHT22;5317;49.048;8.468;2024-03-23T02:03:25;16.30;72.40
10538;DHT22;5317;49.048;8.468;2024-03-23T02:05:51;16.30;72.40
10538;DHT22;5317;49.048;8.468;2024-03-23T02:08:20;16.40;72.40
10538;DHT22;5317;49.048;8.468;2024-03-23T02:10:47;16.40;72.40
10538;DHT22;5317;49.048;8.468;2024-03-23T02:13:14;16.50;72.50
10538;DHT22;5317;49.048;8.468;2024-03-23T02:15:41;16.50;72.50
10538;DHT22;5317;49.048;8.468;2024-03-23T02:18:09;16.50;72.30
10538;DHT22;5317;49.048;8.468;2024-03-23T02:20:35;16.50;72.30
10538;DHT22;5317;49.048;8.468;2024-03-23T02:23:03;16.50;72.20
10538;DHT22;5317;49.048;8.468;2024-03-23T02:25:31;16.50;72.00
10538;DHT22;5317;49.048;8.468;2024-03-23T02:27:58;16.50;72.00
10538;DHT22;5317;49.048;8.468;2024-03-23T02:30:25;16.50;71.90
10538;DHT22;5317;49.048;8.468;2024-03-23T02:32:51;16.60;72.00
10538;DHT22;5317;49.048;8.468;2024-03-23T02:35:18;16.60;71.90
10538;DHT22;5317;49.048;8.468;2024-03-23T02:37:43;16.60;71.70
10538;DHT22;5317;49.048;8.468;2024-03-23T02:40:14;16.60;71.80
10538;DHT22;5317;49.048;8.468;2024-03-23T02:42:39;16.60;71.70
10538;DHT22;5317;49.048;8.468;2024-03-23T02:45:07;16.60;71.60
10538;DHT22;5317;49.048;8.468;2024-03-23T02:47:33;16.60;71.60
10538;DHT22;5317;49.048;8.468;2024-03-23T02:50:00;16.70;71.50
10538;DHT22;5317;49.048;8.468;2024-03-23T02:52:26;16.70;71.60
10538;DHT22;5317;49.048;8.468;2024-03-23T02:54:52;16.70;71.60
10538;DHT22;5317;49.048;8.468;2024-03-23T02:57:20;16.80;71.70
10538;DHT22;5317;49.048;8.468;2024-03-23T02:59:46;16.80;71.70
10538;DHT22;5317;49.048;8.468;2024-03-23T03:02:14;16.80;71.70
10538;DHT22;5317;49.048;8.468;2024-03-23T03:04:41;16.70;71.60
10538;DHT22;5317;49.048;8.468;2024-03-23T03:07:08;16.70;71.80
10538;DHT22;5317;49.048;8.468;2024-03-23T03:09:34;16.70;71.90
10538;DHT22;5317;49.048;8.468;2024-03-23T03:12:01;16.60;72.20
10538;DHT22;5317;49.048;8.468;2024-03-23T03:14:30;16.40;72.40
10538;DHT22;5317;49.048;8.468;2024-03-23T03:16:56;16.40;72.80
10538;DHT22;5317;49.048;8.468;2024-03-23T03:19:23;16.40;73.00
10538;DHT22;5317;49.048;8.468;2024-03-23T03:21:49;16.50;73.10
10538;DHT22;5317;49.048;8.468;2024-03-23T03:24:16;16.40;73.20
10538;DHT22;5317;49.048;8.468;2024-03-23T03:26:42;16.30;73.20
10538;DHT22;5317;49.048;8.468;2024-03-23T03:29:09;16.40;73.10
10538;DHT22;5317;49.048;8.468;2024-03-23T03:31:36;16.30;73.10
10538;DHT22;5317;49.048;8.468;2024-03-23T03:34:03;16.40;73.30
10538;DHT22;5317;49.048;8.468;2024-03-23T03:36:29;16.40;72.70
10538;DHT22;5317;49.048;8.468;2024-03-23T03:38:55;16.40;72.60
10538;DHT22;5317;49.048;8.468;2024-03-23T03:41:21;16.50;72.70
10538;DHT22;5317;49.048;8.468;2024-03-23T03:43:48;16.50;72.60
10538;DHT22;5317;49.048;8.468;2024-03-23T03:46:14;16.50;72.50
10538;DHT22;5317;49.048;8.468;2024-03-23T03:48:42;16.50;71.70
10538;DHT22;5317;49.048;8.468;2024-03-23T03:51:10;16.50;71.60
10538;DHT22;5317;49.048;8.468;2024-03-23T03:53:37;16.50;71.70
10538;DHT22;5317;49.048;8.468;2024-03-23T03:56:03;16.50;71.70
10538;DHT22;5317;49.048;8.468;2024-03-23T03:58:30;16.40;71.30
10538;DHT22;5317;49.048;8.468;2024-03-23T04:00:56;16.40;71.30
10538;DHT22;5317;49.048;8.468;2024-03-23T04:03:23;16.50;71.00
10538;DHT22;5317;49.048;8.468;2024-03-23T04:05:53;16.50;70.80
10538;DHT22;5317;49.048;8.468;2024-03-23T04:08:20;16.50;70.80
10538;DHT22;5317;49.048;8.468;2024-03-23T04:10:46;16.40;70.60
10538;DHT22;5317;49.048;8.468;2024-03-23T04:13:13;16.50;70.40
10538;DHT22;5317;49.048;8.468;2024-03-23T04:15:39;16.40;70.40
10538;DHT22;5317;49.048;8.468;2024-03-23T04:18:06;16.40;70.20
10538;DHT22;5317;49.048;8.468;2024-03-23T04:20:32;16.30;70.10
10538;DHT22;5317;49.048;8.468;2024-03-23T04:23:00;16.20;70.40
10538;DHT22;5317;49.048;8.468;2024-03-23T04:25:26;16.30;70.30
10538;DHT22;5317;49.048;8.468;2024-03-23T04:27:53;16.30;70.40
10538;DHT22;5317;49.048;8.468;2024-03-23T04:30:19;16.20;70.60
10538;DHT22;5317;49.048;8.468;2024-03-23T04:32:50;16.20;70.70
10538;DHT22;5317;49.048;8.468;2024-03-23T04:35:16;16.10;70.70
10538;DHT22;5317;49.048;8.468;2024-03-23T04:37:45;16.10;71.00
10538;DHT22;5317;49.048;8.468;2024-03-23T04:40:13;15.90;71.10
10538;DHT22;5317;49.048;8.468;2024-03-23T04:42:40;15.90;71.50
10538;DHT22;5317;49.048;8.468;2024-03-23T04:45:07;15.80;71.60
10538;DHT22;5317;49.048;8.468;2024-03-23T04:47:34;15.80;71.80
10538;DHT22;5317;49.048;8.468;2024-03-23T04:50:01;15.80;71.70
10538;DHT22;5317;49.048;8.468;2024-03-23T04:52:27;16.00;71.50
10538;DHT22;5317;49.048;8.468;2024-03-23T04:54:54;16.00;71.30
10538;DHT22;5317;49.048;8.468;2024-03-23T04:57:22;16.00;71.00
10538;DHT22;5317;49.048;8.468;2024-03-23T04:59:48;16.00;71.10
10538;DHT22;5317;49.048;8.468;2024-03-23T05:02:15;15.90;71.10
10538;DHT22;5317;49.048;8.468;2024-03-23T05:04:41;15.90;71.30
10538;DHT22;5317;49.048;8.468;2024-03-23T05:07:08;15.80;70.30
10538;DHT22;5317;49.048;8.468;2024-03-23T05:09:34;15.70;70.40
10538;DHT22;5317;49.048;8.468;2024-03-23T05:12:01;15.70;70.50
10538;DHT22;5317;49.048;8.468;2024-03-23T05:14:29;15.70;69.80
10538;DHT22;5317;49.048;8.468;2024-03-23T05:16:56;15.70;68.80
10538;DHT22;5317;49.048;8.468;2024-03-23T05:19:22;15.50;68.20
10538;DHT22;5317;49.048;8.468;2024-03-23T05:21:48;15.50;67.60
10538;DHT22;5317;49.048;8.468;2024-03-23T05:24:14;15.40;67.10
10538;DHT22;5317;49.048;8.468;2024-03-23T05:26:42;15.20;66.70
10538;DHT22;5317;49.048;8.468;2024-03-23T05:29:07;15.00;67.40
10538;DHT22;5317;49.048;8.468;2024-03-23T05:31:38;15.10;67.60
10538;DHT22;5317;49.048;8.468;2024-03-23T05:34:03;15.20;67.60
10538;DHT22;5317;49.048;8.468;2024-03-23T05:36:30;15.20;67.50
10538;DHT22;5317;49.048;8.468;2024-03-23T05:38:58;15.20;67.40
10538;DHT22;5317;49.048;8.468;2024-03-23T05:41:24;15.10;67.50
10538;DHT22;5317;49.048;8.468;2024-03-23T05:43:50;15.00;67.90
10538;DHT22;5317;49.048;8.468;2024-03-23T05:46:17;15.00;68.00
10538;DHT22;5317;49.048;8.468;2024-03-23T05:48:44;15.10;68.00
10538;DHT22;5317;49.048;8.468;2024-03-23T05:51:11;15.00;68.30
10538;DHT22;5317;49.048;8.468;2024-03-23T05:53:38;14.80;68.60
10538;DHT22;5317;49.048;8.468;2024-03-23T05:56:05;14.70;69.30
10538;DHT22;5317;49.048;8.468;2024-03-23T05:58:31;14.60;69.50
10538;DHT22;5317;49.048;8.468;2024-03-23T06:00:58;14.60;69.70
10538;DHT22;5317;49.048;8.468;2024-03-23T06:03:24;14.70;69.20
10538;DHT22;5317;49.048;8.468;2024-03-23T06:05:53;14.70;69.10
10538;DHT22;5317;49.048;8.468;2024-03-23T06:08:19;14.60;69.50
10538;DHT22;5317;49.048;8.468;2024-03-23T06:10:46;14.40;69.80
10538;DHT22;5317;49.048;8.468;2024-03-23T06:13:13;14.40;70.00
10538;DHT22;5317;49.048;8.468;2024-03-23T06:15:40;14.40;70.00
10538;DHT22;5317;49.048;8.468;2024-03-23T06:18:06;14.40;69.80
10538;DHT22;5317;49.048;8.468;2024-03-23T06:20:33;14.60;69.80
10538;DHT22;5317;49.048;8.468;2024-03-23T06:23:01;14.70;69.40
10538;DHT22;5317;49.048;8.468;2024-03-23T06:25:29;14.70;68.90
10538;DHT22;5317;49.048;8.468;2024-03-23T06:27:54;14.70;68.80
10538;DHT22;5317;49.048;8.468;2024-03-23T06:30:21;14.70;68.70
10538;DHT22;5317;49.048;8.468;2024-03-23T06:32:47;14.50;69.10
10538;DHT22;5317;49.048;8.468;2024-03-23T06:35:14;14.60;69.40
10538;DHT22;5317;49.048;8.468;2024-03-23T06:37:40;14.60;68.90
10538;DHT22;5317;49.048;8.468;2024-03-23T06:40:08;14.70;68.70
10538;DHT22;5317;49.048;8.468;2024-03-23T06:42:35;14.80;68.70
10538;DHT22;5317;49.048;8.468;2024-03-23T06:45:03;14.80;68.70
10538;DHT22;5317;49.048;8.468;2024-03-23T06:47:30;14.80;68.30
10538;DHT22;5317;49.048;8.468;2024-03-23T06:49:57;14.80;68.30
10538;DHT22;5317;49.048;8.468;2024-03-23T06:52:23;14.90;67.60
10538;DHT22;5317;49.048;8.468;2024-03-23T06:54:49;14.70;67.00
10538;DHT22;5317;49.048;8.468;2024-03-23T06:57:17;14.60;67.30
10538;DHT22;5317;49.048;8.468;2024-03-23T06:59:43;14.50;66.80
10538;DHT22;5317;49.048;8.468;2024-03-23T07:02:09;14.30;66.20
10538;DHT22;5317;49.048;8.468;2024-03-23T07:04:37;14.00;66.40
10538;DHT22;5317;49.048;8.468;2024-03-23T07:07:05;14.00;67.00
10538;DHT22;5317;49.048;8.468;2024-03-23T07:09:32;13.90;67.10
10538;DHT22;5317;49.048;8.468;2024-03-23T07:11:58;13.80;67.40
10538;DHT22;5317;49.048;8.468;2024-03-23T07:14:26;13.80;67.70
10538;DHT22;5317;49.048;8.468;2024-03-23T07:16:52;13.90;67.40
10538;DHT22;5317;49.048;8.468;2024-03-23T07:19:19;13.90;67.70
10538;DHT22;5317;49.048;8.468;2024-03-23T07:21:45;13.80;67.80
10538;DHT22;5317;49.048;8.468;2024-03-23T07:24:13;13.90;68.60
10538;DHT22;5317;49.048;8.468;2024-03-23T07:26:39;13.90;68.90
10538;DHT22;5317;49.048;8.468;2024-03-23T07:29:06;13.80;69.00
10538;DHT22;5317;49.048;8.468;2024-03-23T07:31:33;13.80;68.90
10538;DHT22;5317;49.048;8.468;2024-03-23T07:34:00;13.90;69.00
10538;DHT22;5317;49.048;8.468;2024-03-23T07:36:26;14.10;68.80
10538;DHT22;5317;49.048;8.468;2024-03-23T07:38:53;14.00;67.90
10538;DHT22;5317;49.048;8.468;2024-03-23T07:41:19;14.00;67.80
10538;DHT22;5317;49.048;8.468;2024-03-23T07:43:47;13.80;67.80
10538;DHT22;5317;49.048;8.468;2024-03-23T07:46:15;13.60;68.20
10538;DHT22;5317;49.048;8.468;2024-03-23T07:48:43;13.50;67.80
10538;DHT22;5317;49.048;8.468;2024-03-23T07:51:11;13.60;67.90
10538;DHT22;5317;49.048;8.468;2024-03-23T07:53:38;13.60;67.80
10538;DHT22;5317;49.048;8.468;2024-03-23T07:56:06;13.80;67.80
10538;DHT22;5317;49.048;8.468;2024-03-23T07:58:34;14.00;67.20
10538;DHT22;5317;49.048;8.468;2024-03-23T08:01:04;13.90;67.70
10538;DHT22;5317;49.048;8.468;2024-03-23T08:03:31;13.80;66.80
10538;DHT22;5317;49.048;8.468;2024-03-23T08:05:58;13.80;67.10
10538;DHT22;5317;49.048;8.468;2024-03-23T08:08:48;13.90;67.40
10538;DHT22;5317;49.048;8.468;2024-03-23T08:11:14;14.00;67.00
10538;DHT22;5317;49.048;8.468;2024-03-23T08:13:42;14.10;66.70
10538;DHT22;5317;49.048;8.468;2024-03-23T08:16:08;14.20;66.60
10538;DHT22;5317;49.048;8.468;2024-03-23T08:18:35;14.10;66.40
10538;DHT22;5317;49.048;8.468;2024-03-23T08:21:03;14.10;66.30
10538;DHT22;5317;49.048;8.468;2024-03-23T08:23:31;14.10;66.30
10538;DHT22;5317;49.048;8.468;2024-03-23T08:25:59;14.10;66.30
10538;DHT22;5317;49.048;8.468;2024-03-23T08:28:27;14.10;65.00
10538;DHT22;5317;49.048;8.468;2024-03-23T08:30:53;14.20;63.30
10538;DHT22;5317;49.048;8.468;2024-03-23T08:33:20;14.20;63.00
10538;DHT22;5317;49.048;8.468;2024-03-23T08:35:53;14.30;62.40
10538;DHT22;5317;49.048;8.468;2024-03-23T08:38:22;14.30;62.20
10538;DHT22;5317;49.048;8.468;2024-03-23T08:40:55;14.20;60.70
10538;DHT22;5317;49.048;8.468;2024-03-23T08:43:22;14.20;60.90
10538;DHT22;5317;49.048;8.468;2024-03-23T08:45:48;14.10;60.50
10538;DHT22;5317;49.048;8.468;2024-03-23T08:48:15;14.00;60.90
10538;DHT22;5317;49.048;8.468;2024-03-23T08:50:41;14.10;61.00
10538;DHT22;5317;49.048;8.468;2024-03-23T08:53:08;14.10;60.40
10538;DHT22;5317;49.048;8.468;2024-03-23T08:55:35;14.20;59.60
10538;DHT22;5317;49.048;8.468;2024-03-23T08:58:02;14.00;59.70
10538;DHT22;5317;49.048;8.468;2024-03-23T09:00:29;14.10;60.30
10538;DHT22;5317;49.048;8.468;2024-03-23T09:02:57;14.40;59.80
10538;DHT22;5317;49.048;8.468;2024-03-23T09:05:23;14.70;60.40
10538;DHT22;5317;49.048;8.468;2024-03-23T09:07:50;15.00;59.00
10538;DHT22;5317;49.048;8.468;2024-03-23T09:10:16;15.10;58.40
10538;DHT22;5317;49.048;8.468;2024-03-23T09:12:44;15.10;57.60
10538;DHT22;5317;49.048;8.468;2024-03-23T09:15:10;15.20;57.70
10538;DHT22;5317;49.048;8.468;2024-03-23T09:17:37;15.30;56.80
10538;DHT22;5317;49.048;8.468;2024-03-23T09:20:04;15.30;56.90
10538;DHT22;5317;49.048;8.468;2024-03-23T09:22:31;15.20;55.70
10538;DHT22;5317;49.048;8.468;2024-03-23T09:24:56;15.30;56.10
10538;DHT22;5317;49.048;8.468;2024-03-23T09:27:23;15.30;55.60
10538;DHT22;5317;49.048;8.468;2024-03-23T09:29:50;15.30;56.80
10538;DHT22;5317;49.048;8.468;2024-03-23T09:32:17;15.20;55.10
10538;DHT22;5317;49.048;8.468;2024-03-23T09:34:43;15.00;53.50
10538;DHT22;5317;49.048;8.468;2024-03-23T09:37:10;14.70;52.90
10538;DHT22;5317;49.048;8.468;2024-03-23T09:39:37;14.70;52.90
10538;DHT22;5317;49.048;8.468;2024-03-23T09:42:05;14.60;53.10
10538;DHT22;5317;49.048;8.468;2024-03-23T09:44:31;14.60;53.50
10538;DHT22;5317;49.048;8.468;2024-03-23T09:47:00;14.70;53.90
10538;DHT22;5317;49.048;8.468;2024-03-23T09:49:26;14.70;53.90
10538;DHT22;5317;49.048;8.468;2024-03-23T09:51:53;14.70;53.20
10538;DHT22;5317;49.048;8.468;2024-03-23T09:54:20;14.50;53.90
10538;DHT22;5317;49.048;8.468;2024-03-23T09:56:48;14.10;54.50
10538;DHT22;5317;49.048;8.468;2024-03-23T09:59:14;13.80;56.60
10538;DHT22;5317;49.048;8.468;2024-03-23T10:01:41;13.50;58.00
10538;DHT22;5317;49.048;8.468;2024-03-23T10:04:08;13.30;58.40
10538;DHT22;5317;49.048;8.468;2024-03-23T10:06:35;13.20;59.10
10538;DHT22;5317;49.048;8.468;2024-03-23T10:09:16;13.10;59.40
10538;DHT22;5317;49.048;8.468;2024-03-23T10:11:42;13.10;59.30
10538;DHT22;5317;49.048;8.468;2024-03-23T10:14:29;12.90;59.70
10538;DHT22;5317;49.048;8.468;2024-03-23T10:16:54;12.90;61.10
10538;DHT22;5317;49.048;8.468;2024-03-23T10:19:38;12.80;62.30
10538;DHT22;5317;49.048;8.468;2024-03-23T10:22:04;12.90;62.90
10538;DHT22;5317;49.048;8.468;2024-03-23T10:24:30;12.90;62.10
10538;DHT22;5317;49.048;8.468;2024-03-23T10:26:57;13.00;62.50
10538;DHT22;5317;49.048;8.468;2024-03-23T10:29:23;13.00;62.40
10538;DHT22;5317;49.048;8.468;2024-03-23T10:31:53;13.10;62.80
10538;DHT22;5317;49.048;8.468;2024-03-23T10:34:25;13.10;63.00
10538;DHT22;5317;49.048;8.468;2024-03-23T10:36:53;13.10;62.30
10538;DHT22;5317;49.048;8.468;2024-03-23T10:39:22;13.10;61.90
10538;DHT22;5317;49.048;8.468;2024-03-23T10:41:49;13.20;61.00
10538;DHT22;5317;49.048;8.468;2024-03-23T10:44:19;13.20;60.80
10538;DHT22;5317;49.048;8.468;2024-03-23T10:46:45;13.40;60.30
10538;DHT22;5317;49.048;8.468;2024-03-23T10:49:12;13.70;60.80
10538;DHT22;5317;49.048;8.468;2024-03-23T10:51:38;13.70;60.70
10538;DHT22;5317;49.048;8.468;2024-03-23T10:54:06;13.80;61.30
10538;DHT22;5317;49.048;8.468;2024-03-23T10:56:35;13.90;61.20
10538;DHT22;5317;49.048;8.468;2024-03-23T10:59:05;13.90;61.00
10538;DHT22;5317;49.048;8.468;2024-03-23T11:01:34;14.10;61.50
10538;DHT22;5317;49.048;8.468;2024-03-23T11:04:01;14.20;61.90
10538;DHT22;5317;49.048;8.468;2024-03-23T11:06:35;14.40;61.80
10538;DHT22;5317;49.048;8.468;2024-03-23T11:09:02;14.40;60.60
10538;DHT22;5317;49.048;8.468;2024-03-23T11:11:29;14.50;60.40
10538;DHT22;5317;49.048;8.468;2024-03-23T11:13:59;14.80;60.80
10538;DHT22;5317;49.048;8.468;2024-03-23T11:16:26;15.00;61.20
10538;DHT22;5317;49.048;8.468;2024-03-23T11:19:34;15.20;59.00
10538;DHT22;5317;49.048;8.468;2024-03-23T11:22:00;15.40;55.60
10538;DHT22;5317;49.048;8.468;2024-03-23T11:24:27;15.30;55.30
10538;DHT22;5317;49.048;8.468;2024-03-23T11:26:55;15.30;55.00
10538;DHT22;5317;49.048;8.468;2024-03-23T11:29:22;15.40;55.10
10538;DHT22;5317;49.048;8.468;2024-03-23T11:31:48;15.50;53.90
10538;DHT22;5317;49.048;8.468;2024-03-23T11:34:15;15.50;53.70
10538;DHT22;5317;49.048;8.468;2024-03-23T11:36:41;15.50;54.10
10538;DHT22;5317;49.048;8.468;2024-03-23T11:39:12;15.50;53.70
10538;DHT22;5317;49.048;8.468;2024-03-23T11:41:46;15.60;53.40
10538;DHT22;5317;49.048;8.468;2024-03-23T11:44:18;15.50;53.60
10538;DHT22;5317;49.048;8.468;2024-03-23T11:46:44;15.60;55.30
10538;DHT22;5317;49.048;8.468;2024-03-23T11:49:24;15.80;56.20
10538;DHT22;5317;49.048;8.468;2024-03-23T11:51:51;15.60;55.20
10538;DHT22;5317;49.048;8.468;2024-03-23T11:54:20;15.30;56.50
10538;DHT22;5317;49.048;8.468;2024-03-23T11:56:56;15.20;58.10
10538;DHT22;5317;49.048;8.468;2024-03-23T11:59:35;15.20;58.50
10538;DHT22;5317;49.048;8.468;2024-03-23T12:02:06;15.40;59.10
10538;DHT22;5317;49.048;8.468;2024-03-23T12:04:33;15.50;59.40
10538;DHT22;5317;49.048;8.468;2024-03-23T12:07:12;15.50;59.80
10538;DHT22;5317;49.048;8.468;2024-03-23T12:09:39;15.60;60.10
10538;DHT22;5317;49.048;8.468;2024-03-23T12:12:13;15.70;59.40
10538;DHT22;5317;49.048;8.468;2024-03-23T12:14:43;16.00;58.40
10538;DHT22;5317;49.048;8.468;2024-03-23T12:17:10;16.10;56.80
10538;DHT22;5317;49.048;8.468;2024-03-23T12:19:37;16.20;54.70
10538;DHT22;5317;49.048;8.468;2024-03-23T12:22:04;16.40;56.40
10538;DHT22;5317;49.048;8.468;2024-03-23T12:24:31;16.60;56.40
10538;DHT22;5317;49.048;8.468;2024-03-23T12:27:00;16.90;56.60
10538;DHT22;5317;49.048;8.468;2024-03-23T12:29:29;17.00;54.80
10538;DHT22;5317;49.048;8.468;2024-03-23T12:31:56;16.90;52.30
10538;DHT22;5317;49.048;8.468;2024-03-23T12:34:23;16.70;50.70
10538;DHT22;5317;49.048;8.468;2024-03-23T12:36:49;16.30;49.30
10538;DHT22;5317;49.048;8.468;2024-03-23T12:39:16;16.00;50.10
10538;DHT22;5317;49.048;8.468;2024-03-23T12:41:43;15.90;49.60
10538;DHT22;5317;49.048;8.468;2024-03-23T12:44:10;15.90;49.00
10538;DHT22;5317;49.048;8.468;2024-03-23T12:46:37;16.00;47.30
10538;DHT22;5317;49.048;8.468;2024-03-23T12:49:05;16.00;47.50
10538;DHT22;5317;49.048;8.468;2024-03-23T12:51:31;15.90;49.00
10538;DHT22;5317;49.048;8.468;2024-03-23T12:53:58;15.90;49.10
10538;DHT22;5317;49.048;8.468;2024-03-23T12:56:24;15.80;51.00
10538;DHT22;5317;49.048;8.468;2024-03-23T12:58:51;15.80;52.00
10538;DHT22;5317;49.048;8.468;2024-03-23T13:01:19;15.70;51.00
10538;DHT22;5317;49.048;8.468;2024-03-23T13:03:46;15.50;50.50
10538;DHT22;5317;49.048;8.468;2024-03-23T13:06:13;15.30;52.30
10538;DHT22;5317;49.048;8.468;2024-03-23T13:08:40;14.40;53.80
10538;DHT22;5317;49.048;8.468;2024-03-23T13:11:06;13.90;55.90
10538;DHT22;5317;49.048;8.468;2024-03-23T13:13:34;13.50;57.60
10538;DHT22;5317;49.048;8.468;2024-03-23T13:16:00;13.50;58.80
10538;DHT22;5317;49.048;8.468;2024-03-23T13:18:28;13.70;59.40
10538;DHT22;5317;49.048;8.468;2024-03-23T13:20:53;13.80;58.90
10538;DHT22;5317;49.048;8.468;2024-03-23T13:23:22;14.00;58.80
10538;DHT22;5317;49.048;8.468;2024-03-23T13:25:50;14.20;56.40
10538;DHT22;5317;49.048;8.468;2024-03-23T13:28:18;14.40;56.00
10538;DHT22;5317;49.048;8.468;2024-03-23T13:30:50;14.80;55.30
10538;DHT22;5317;49.048;8.468;2024-03-23T13:33:17;15.00;53.20
10538;DHT22;5317;49.048;8.468;2024-03-23T13:35:49;15.10;53.50
10538;DHT22;5317;49.048;8.468;2024-03-23T13:38:16;15.20;53.30
10538;DHT22;5317;49.048;8.468;2024-03-23T13:40:51;15.40;53.60
10538;DHT22;5317;49.048;8.468;2024-03-23T13:43:18;14.90;51.90
10538;DHT22;5317;49.048;8.468;2024-03-23T13:45:45;14.80;52.60
10538;DHT22;5317;49.048;8.468;2024-03-23T13:48:12;14.60;52.70
10538;DHT22;5317;49.048;8.468;2024-03-23T13:50:38;14.50;53.10
10538;DHT22;5317;49.048;8.468;2024-03-23T13:53:05;14.50;53.10
10538;DHT22;5317;49.048;8.468;2024-03-23T13:55:31;14.50;53.40
10538;DHT22;5317;49.048;8.468;2024-03-23T13:58:00;14.60;53.40
10538;DHT22;5317;49.048;8.468;2024-03-23T14:00:25;14.80;53.30
10538;DHT22;5317;49.048;8.468;2024-03-23T14:02:52;14.80;52.20
10538;DHT22;5317;49.048;8.468;2024-03-23T14:05:18;14.70;52.80
10538;DHT22;5317;49.048;8.468;2024-03-23T14:07:45;14.70;53.70
10538;DHT22;5317;49.048;8.468;2024-03-23T14:10:11;14.50;53.20
10538;DHT22;5317;49.048;8.468;2024-03-23T14:12:38;14.40;53.60
10538;DHT22;5317;49.048;8.468;2024-03-23T14:15:07;14.20;54.90
10538;DHT22;5317;49.048;8.468;2024-03-23T14:17:34;14.30;56.00
10538;DHT22;5317;49.048;8.468;2024-03-23T14:20:00;14.50;55.30
10538;DHT22;5317;49.048;8.468;2024-03-23T14:22:27;14.50;54.40
10538;DHT22;5317;49.048;8.468;2024-03-23T14:24:53;14.40;54.00
10538;DHT22;5317;49.048;8.468;2024-03-23T14:27:20;14.90;53.80
10538;DHT22;5317;49.048;8.468;2024-03-23T14:29:47;15.10;53.40
10538;DHT22;5317;49.048;8.468;2024-03-23T14:32:15;15.00;52.80
10538;DHT22;5317;49.048;8.468;2024-03-23T14:34:41;14.70;53.20
10538;DHT22;5317;49.048;8.468;2024-03-23T14:37:08;14.50;53.20
10538;DHT22;5317;49.048;8.468;2024-03-23T14:39:34;14.10;52.80
10538;DHT22;5317;49.048;8.468;2024-03-23T14:42:01;14.10;53.60
10538;DHT22;5317;49.048;8.468;2024-03-23T14:44:27;15.50;52.10
10538;DHT22;5317;49.048;8.468;2024-03-23T14:46:54;17.90;50.00
10538;DHT22;5317;49.048;8.468;2024-03-23T14:49:22;20.70;47.20
10538;DHT22;5317;49.048;8.468;2024-03-23T14:51:49;23.70;43.50
10538;DHT22;5317;49.048;8.468;2024-03-23T14:54:16;25.70;39.70
10538;DHT22;5317;49.048;8.468;2024-03-23T14:56:42;27.10;37.30
10538;DHT22;5317;49.048;8.468;2024-03-23T14:59:08;28.90;36.70
10538;DHT22;5317;49.048;8.468;2024-03-23T15:01:35;29.80;32.20
10538;DHT22;5317;49.048;8.468;2024-03-23T15:04:01;30.50;32.50
10538;DHT22;5317;49.048;8.468;2024-03-23T15:06:30;30.60;30.10
10538;DHT22;5317;49.048;8.468;2024-03-23T15:08:56;29.30;31.30
10538;DHT22;5317;49.048;8.468;2024-03-23T15:11:23;28.80;32.90
10538;DHT22;5317;49.048;8.468;2024-03-23T15:13:50;28.60;32.90
10538;DHT22;5317;49.048;8.468;2024-03-23T15:16:17;27.90;32.40
10538;DHT22;5317;49.048;8.468;2024-03-23T15:18:45;27.40;32.50
10538;DHT22;5317;49.048;8.468;2024-03-23T15:21:12;27.30;32.50
10538;DHT22;5317;49.048;8.468;2024-03-23T15:23:42;25.10;33.70
10538;DHT22;5317;49.048;8.468;2024-03-23T15:26:09;22.70;36.20
10538;DHT22;5317;49.048;8.468;2024-03-23T15:28:36;21.10;38.60
10538;DHT22;5317;49.048;8.468;2024-03-23T15:31:08;19.70;40.60
10538;DHT22;5317;49.048;8.468;2024-03-23T15:33:34;18.30;42.60
10538;DHT22;5317;49.048;8.468;2024-03-23T15:36:01;17.30;44.50
10538;DHT22;5317;49.048;8.468;2024-03-23T15:38:27;16.50;46.00
10538;DHT22;5317;49.048;8.468;2024-03-23T15:40:56;15.80;47.20
10538;DHT22;5317;49.048;8.468;2024-03-23T15:43:22;15.30;48.80
10538;DHT22;5317;49.048;8.468;2024-03-23T15:45:54;14.80;49.60
10538;DHT22;5317;49.048;8.468;2024-03-23T15:48:20;14.60;50.90
10538;DHT22;5317;49.048;8.468;2024-03-23T15:50:51;14.50;52.60
10538;DHT22;5317;49.048;8.468;2024-03-23T15:53:18;14.30;54.50
10538;DHT22;5317;49.048;8.468;2024-03-23T15:55:45;13.70;55.60
10538;DHT22;5317;49.048;8.468;2024-03-23T15:58:12;13.50;57.30
10538;DHT22;5317;49.048;8.468;2024-03-23T16:00:39;13.20;59.30
10538;DHT22;5317;49.048;8.468;2024-03-23T16:03:05;12.90;60.60
10538;DHT22;5317;49.048;8.468;2024-03-23T16:05:32;12.90;61.40
10538;DHT22;5317;49.048;8.468;2024-03-23T16:07:58;12.80;61.70
10538;DHT22;5317;49.048;8.468;2024-03-23T16:10:25;12.80;62.50
10538;DHT22;5317;49.048;8.468;2024-03-23T16:12:51;12.70;63.00
10538;DHT22;5317;49.048;8.468;2024-03-23T16:15:19;12.60;63.00
10538;DHT22;5317;49.048;8.468;2024-03-23T16:17:45;12.70;63.20
10538;DHT22;5317;49.048;8.468;2024-03-23T16:20:12;12.80;62.00
10538;DHT22;5317;49.048;8.468;2024-03-23T16:22:38;12.60;60.70
10538;DHT22;5317;49.048;8.468;2024-03-23T16:25:06;12.20;62.20
10538;DHT22;5317;49.048;8.468;2024-03-23T16:27:32;12.10;63.90
10538;DHT22;5317;49.048;8.468;2024-03-23T16:29:59;12.30;63.90
10538;DHT22;5317;49.048;8.468;2024-03-23T16:32:27;12.30;64.00
10538;DHT22;5317;49.048;8.468;2024-03-23T16:34:55;12.30;64.10
10538;DHT22;5317;49.048;8.468;2024-03-23T16:37:21;12.20;64.00